sensor_id;sensor_type;location;lat;lon;timestamp;pressure;altitude;pressure_sealevel;temperature;humidity
10539;BME280;5317;49.048;8.468;2022-10-31T00:01:33;112049.66;;;-142.21;100.00
10539;BME280;5317;49.048;8.468;2022-10-31T00:04:00;112049.66;;;-142.21;100.00
10539;BME280;5317;49.048;8.468;2022-10-31T00:06:28;112049.66;;;-142.21;100.00
10539;BME280;5317;49.048;8.468;2022-10-31T00:08:58;112049.66;;;-142.21;100.00
10539;BME280;5317;49.048;8.468;2022-10-31T00:11:29;112049.66;;;-142.21;100.00
10539;BME280;5317;49.048;8.468;2022-10-31T00:13:57;112049.66;;;-142.21;100.00
10539;BME280;5317;49.048;8.468;2022-10-31T00:16:27;112049.66;;;-142.21;100.00
10539;BME280;5317;49.048;8.468;2022-10-31T00:18:59;112049.66;;;-142.21;100.00
10539;BME280;5317;49.048;8.468;2022-10-31T00:21:29;112049.66;;;-142.21;100.00
10539;BME280;5317;49.048;8.468;2022-10-31T00:23:58;112049.66;;;-142.21;100.00
10539;BME280;5317;49.048;8.468;2022-10-31T00:26:29;112049.66;;;-142.21;100.00
10539;BME280;5317;49.048;8.468;2022-10-31T00:28:57;112049.66;;;-142.21;100.00
10539;BME280;5317;49.048;8.468;2022-10-31T00:31:27;112049.66;;;-142.21;100.00
10539;BME280;5317;49.048;8.468;2022-10-31T00:33:55;112049.66;;;-142.21;100.00
10539;BME280;5317;49.048;8.468;2022-10-31T00:36:22;112049.66;;;-142.21;100.00
10539;BME280;5317;49.048;8.468;2022-10-31T00:38:52;112049.66;;;-142.21;100.00
10539;BME280;5317;49.048;8.468;2022-10-31T00:41:19;112049.66;;;-142.21;100.00
10539;BME280;5317;49.048;8.468;2022-10-31T00:43:48;112049.66;;;-142.21;100.00
10539;BME280;5317;49.048;8.468;2022-10-31T00:46:15;112049.66;;;-142.21;100.00
10539;BME280;5317;49.048;8.468;2022-10-31T00:48:42;112049.66;;;-142.21;100.00
10539;BME280;5317;49.048;8.468;2022-10-31T00:51:10;112049.66;;;-142.21;100.00
10539;BME280;5317;49.048;8.468;2022-10-31T00:53:38;112049.66;;;-142.21;100.00
10539;BME280;5317;49.048;8.468;2022-10-31T00:56:06;112049.66;;;-142.21;100.00
10539;BME280;5317;49.048;8.468;2022-10-31T00:58:33;112049.66;;;-142.21;100.00
10539;BME280;5317;49.048;8.468;2022-10-31T01:01:03;112049.66;;;-142.21;100.00
10539;BME280;5317;49.048;8.468;2022-10-31T01:03:32;112049.66;;;-142.21;100.00
10539;BME280;5317;49.048;8.468;2022-10-31T01:06:04;112049.66;;;-142.21;100.00
10539;BME280;5317;49.048;8.468;2022-10-31T01:08:31;112049.66;;;-142.21;100.00
10539;BME280;5317;49.048;8.468;2022-10-31T01:11:07;112049.66;;;-142.21;100.00
10539;BME280;5317;49.048;8.468;2022-10-31T01:13:35;112049.66;;;-142.21;100.00
10539;BME280;5317;49.048;8.468;2022-10-31T01:16:07;112049.66;;;-142.21;100.00
10539;BME280;5317;49.048;8.468;2022-10-31T01:18:35;112049.66;;;-142.21;100.00
10539;BME280;5317;49.048;8.468;2022-10-31T01:21:06;112049.66;;;-142.21;100.00
10539;BME280;5317;49.048;8.468;2022-10-31T01:23:34;112049.66;;;-142.21;100.00
10539;BME280;5317;49.048;8.468;2022-10-31T01:26:06;112049.66;;;-142.21;100.00
10539;BME280;5317;49.048;8.468;2022-10-31T01:28:35;112049.66;;;-142.21;100.00
10539;BME280;5317;49.048;8.468;2022-10-31T01:31:08;112049.66;;;-142.21;100.00
10539;BME280;5317;49.048;8.468;2022-10-31T01:33:36;112049.66;;;-142.21;100.00
10539;BME280;5317;49.048;8.468;2022-10-31T01:36:14;112049.66;;;-142.21;100.00
10539;BME280;5317;49.048;8.468;2022-10-31T01:38:42;112049.66;;;-142.21;100.00
10539;BME280;5317;49.048;8.468;2022-10-31T01:41:10;112049.66;;;-142.21;100.00
10539;BME280;5317;49.048;8.468;2022-10-31T01:43:49;112049.66;;;-142.21;100.00
10539;BME280;5317;49.048;8.468;2022-10-31T01:46:23;112049.66;;;-142.21;100.00
10539;BME280;5317;49.048;8.468;2022-10-31T01:48:54;112049.66;;;-142.21;100.00
10539;BME280;5317;49.048;8.468;2022-10-31T01:51:30;112049.66;;;-142.21;100.00
10539;BME280;5317;49.048;8.468;2022-10-31T01:54:05;112049.66;;;-142.21;100.00
10539;BME280;5317;49.048;8.468;2022-10-31T01:56:37;112049.66;;;-142.21;100.00
10539;BME280;5317;49.048;8.468;2022-10-31T01:59:09;112049.66;;;-142.21;100.00
10539;BME280;5317;49.048;8.468;2022-10-31T02:01:40;112049.66;;;-142.21;100.00
10539;BME280;5317;49.048;8.468;2022-10-31T02:04:07;112049.66;;;-142.21;100.00
10539;BME280;5317;49.048;8.468;2022-10-31T02:06:42;112049.66;;;-142.21;100.00
10539;BME280;5317;49.048;8.468;2022-10-31T02:09:13;112049.66;;;-142.21;100.00
10539;BME280;5317;49.048;8.468;2022-10-31T02:11:42;112049.66;;;-142.21;100.00
10539;BME280;5317;49.048;8.468;2022-10-31T02:14:11;112049.66;;;-142.21;100.00
10539;BME280;5317;49.048;8.468;2022-10-31T02:16:41;112049.66;;;-142.21;100.00
10539;BME280;5317;49.048;8.468;2022-10-31T02:19:13;112049.66;;;-142.21;100.00
10539;BME280;5317;49.048;8.468;2022-10-31T02:21:50;112049.66;;;-142.21;100.00
10539;BME280;5317;49.048;8.468;2022-10-31T02:24:58;112049.66;;;-142.21;100.00
10539;BME280;5317;49.048;8.468;2022-10-31T02:28:06;112049.66;;;-142.21;100.00
10539;BME280;5317;49.048;8.468;2022-10-31T02:31:00;112049.66;;;-142.21;100.00
10539;BME280;5317;49.048;8.468;2022-10-31T02:33:41;112049.66;;;-142.21;100.00
10539;BME280;5317;49.048;8.468;2022-10-31T02:36:19;112049.66;;;-142.21;100.00
10539;BME280;5317;49.048;8.468;2022-10-31T02:38:59;112049.66;;;-142.21;100.00
10539;BME280;5317;49.048;8.468;2022-10-31T02:41:37;112049.66;;;-142.21;100.00
10539;BME280;5317;49.048;8.468;2022-10-31T02:44:16;112049.66;;;-142.21;100.00
10539;BME280;5317;49.048;8.468;2022-10-31T02:46:50;112049.66;;;-142.21;100.00
10539;BME280;5317;49.048;8.468;2022-10-31T02:49:24;112049.66;;;-142.21;100.00
10539;BME280;5317;49.048;8.468;2022-10-31T02:51:53;112049.66;;;-142.21;100.00
10539;BME280;5317;49.048;8.468;2022-10-31T02:54:24;112049.66;;;-142.21;100.00
10539;BME280;5317;49.048;8.468;2022-10-31T02:56:58;112049.66;;;-142.21;100.00
10539;BME280;5317;49.048;8.468;2022-10-31T02:59:29;112049.66;;;-142.21;100.00
10539;BME280;5317;49.048;8.468;2022-10-31T03:02:56;112049.66;;;-142.21;100.00
10539;BME280;5317;49.048;8.468;2022-10-31T03:05:49;112049.66;;;-142.21;100.00
10539;BME280;5317;49.048;8.468;2022-10-31T03:08:31;112049.66;;;-142.21;100.00
10539;BME280;5317;49.048;8.468;2022-10-31T03:11:05;112049.66;;;-142.21;100.00
10539;BME280;5317;49.048;8.468;2022-10-31T03:13:43;112049.66;;;-142.21;100.00
10539;BME280;5317;49.048;8.468;2022-10-31T03:16:16;112049.66;;;-142.21;100.00
10539;BME280;5317;49.048;8.468;2022-10-31T03:18:54;112049.66;;;-142.21;100.00
10539;BME280;5317;49.048;8.468;2022-10-31T03:21:30;112049.66;;;-142.21;100.00
10539;BME280;5317;49.048;8.468;2022-10-31T03:24:04;112049.66;;;-142.21;100.00
10539;BME280;5317;49.048;8.468;2022-10-31T03:26:35;112049.66;;;-142.21;100.00
10539;BME280;5317;49.048;8.468;2022-10-31T03:29:06;112049.66;;;-142.21;100.00
10539;BME280;5317;49.048;8.468;2022-10-31T03:31:37;112049.66;;;-142.21;100.00
10539;BME280;5317;49.048;8.468;2022-10-31T03:34:08;112049.66;;;-142.21;100.00
10539;BME280;5317;49.048;8.468;2022-10-31T03:36:39;112049.66;;;-142.21;100.00
10539;BME280;5317;49.048;8.468;2022-10-31T03:39:13;112049.66;;;-142.21;100.00
10539;BME280;5317;49.048;8.468;2022-10-31T03:41:47;112049.66;;;-142.21;100.00
10539;BME280;5317;49.048;8.468;2022-10-31T03:44:19;112049.66;;;-142.21;100.00
10539;BME280;5317;49.048;8.468;2022-10-31T03:46:48;112049.66;;;-142.21;100.00
10539;BME280;5317;49.048;8.468;2022-10-31T03:49:17;112049.66;;;-142.21;100.00
10539;BME280;5317;49.048;8.468;2022-10-31T03:51:51;112049.66;;;-142.21;100.00
10539;BME280;5317;49.048;8.468;2022-10-31T03:54:27;112049.66;;;-142.21;100.00
10539;BME280;5317;49.048;8.468;2022-10-31T03:57:03;112049.66;;;-142.21;100.00
10539;BME280;5317;49.048;8.468;2022-10-31T03:59:38;112049.66;;;-142.21;100.00
10539;BME280;5317;49.048;8.468;2022-10-31T04:02:12;112049.66;;;-142.21;100.00
10539;BME280;5317;49.048;8.468;2022-10-31T04:04:44;112049.66;;;-142.21;100.00
10539;BME280;5317;49.048;8.468;2022-10-31T04:07:14;112049.66;;;-142.21;100.00
10539;BME280;5317;49.048;8.468;2022-10-31T04:09:46;112049.66;;;-142.21;100.00
10539;BME280;5317;49.048;8.468;2022-10-31T04:12:16;112049.66;;;-142.21;100.00
10539;BME280;5317;49.048;8.468;2022-10-31T04:14:47;112049.66;;;-142.21;100.00
10539;BME280;5317;49.048;8.468;2022-10-31T04:17:19;112049.66;;;-142.21;100.00
10539;BME280;5317;49.048;8.468;2022-10-31T04:19:49;112049.66;;;-142.21;100.00
10539;BME280;5317;49.048;8.468;2022-10-31T04:22:16;112049.66;;;-142.21;100.00
10539;BME280;5317;49.048;8.468;2022-10-31T04:24:43;112049.66;;;-142.21;100.00
10539;BME280;5317;49.048;8.468;2022-10-31T04:27:11;112049.66;;;-142.21;100.00
10539;BME280;5317;49.048;8.468;2022-10-31T04:29:38;112049.66;;;-142.21;100.00
10539;BME280;5317;49.048;8.468;2022-10-31T04:32:05;112049.66;;;-142.21;100.00
10539;BME280;5317;49.048;8.468;2022-10-31T04:34:33;112049.66;;;-142.21;100.00
10539;BME280;5317;49.048;8.468;2022-10-31T04:37:01;112049.66;;;-142.21;100.00
10539;BME280;5317;49.048;8.468;2022-10-31T04:39:29;112049.66;;;-142.21;100.00
10539;BME280;5317;49.048;8.468;2022-10-31T04:41:56;112049.66;;;-142.21;100.00
10539;BME280;5317;49.048;8.468;2022-10-31T04:44:23;112049.66;;;-142.21;100.00
10539;BME280;5317;49.048;8.468;2022-10-31T04:46:50;112049.66;;;-142.21;100.00
10539;BME280;5317;49.048;8.468;2022-10-31T04:49:18;112049.66;;;-142.21;100.00
10539;BME280;5317;49.048;8.468;2022-10-31T04:51:45;112049.66;;;-142.21;100.00
10539;BME280;5317;49.048;8.468;2022-10-31T04:54:13;112049.66;;;-142.21;100.00
10539;BME280;5317;49.048;8.468;2022-10-31T04:56:43;112049.66;;;-142.21;100.00
10539;BME280;5317;49.048;8.468;2022-10-31T04:59:11;112049.66;;;-142.21;100.00
10539;BME280;5317;49.048;8.468;2022-10-31T05:01:38;112049.66;;;-142.21;100.00
10539;BME280;5317;49.048;8.468;2022-10-31T05:04:05;112049.66;;;-142.21;100.00
10539;BME280;5317;49.048;8.468;2022-10-31T05:06:32;112049.66;;;-142.21;100.00
10539;BME280;5317;49.048;8.468;2022-10-31T05:08:59;112049.66;;;-142.21;100.00
10539;BME280;5317;49.048;8.468;2022-10-31T05:11:28;112049.66;;;-142.21;100.00
10539;BME280;5317;49.048;8.468;2022-10-31T05:13:55;112049.66;;;-142.21;100.00
10539;BME280;5317;49.048;8.468;2022-10-31T05:16:22;112049.66;;;-142.21;100.00
10539;BME280;5317;49.048;8.468;2022-10-31T05:18:50;112049.66;;;-142.21;100.00
10539;BME280;5317;49.048;8.468;2022-10-31T05:21:17;112049.66;;;-142.21;100.00
10539;BME280;5317;49.048;8.468;2022-10-31T05:23:44;112049.66;;;-142.21;100.00
10539;BME280;5317;49.048;8.468;2022-10-31T05:26:12;112049.66;;;-142.21;100.00
10539;BME280;5317;49.048;8.468;2022-10-31T05:28:40;112049.66;;;-142.21;100.00
10539;BME280;5317;49.048;8.468;2022-10-31T05:31:07;112049.66;;;-142.21;100.00
10539;BME280;5317;49.048;8.468;2022-10-31T05:33:35;112049.66;;;-142.21;100.00
10539;BME280;5317;49.048;8.468;2022-10-31T05:36:02;112049.66;;;-142.21;100.00
10539;BME280;5317;49.048;8.468;2022-10-31T05:38:33;112049.66;;;-142.21;100.00
10539;BME280;5317;49.048;8.468;2022-10-31T05:41:02;112049.66;;;-142.21;100.00
10539;BME280;5317;49.048;8.468;2022-10-31T05:43:29;112049.66;;;-142.21;100.00
10539;BME280;5317;49.048;8.468;2022-10-31T05:45:59;112049.66;;;-142.21;100.00
10539;BME280;5317;49.048;8.468;2022-10-31T05:48:26;112049.66;;;-142.21;100.00
10539;BME280;5317;49.048;8.468;2022-10-31T05:50:53;112049.66;;;-142.21;100.00
10539;BME280;5317;49.048;8.468;2022-10-31T05:53:20;112049.66;;;-142.21;100.00
10539;BME280;5317;49.048;8.468;2022-10-31T05:55:48;112049.66;;;-142.21;100.00
10539;BME280;5317;49.048;8.468;2022-10-31T05:58:15;112049.66;;;-142.21;100.00
10539;BME280;5317;49.048;8.468;2022-10-31T06:00:42;112049.66;;;-142.21;100.00
10539;BME280;5317;49.048;8.468;2022-10-31T06:03:10;112049.66;;;-142.21;100.00
10539;BME280;5317;49.048;8.468;2022-10-31T06:05:38;112049.66;;;-142.21;100.00
10539;BME280;5317;49.048;8.468;2022-10-31T06:08:05;112049.66;;;-142.21;100.00
10539;BME280;5317;49.048;8.468;2022-10-31T06:10:32;112049.66;;;-142.21;100.00
10539;BME280;5317;49.048;8.468;2022-10-31T06:13:00;112049.66;;;-142.21;100.00
10539;BME280;5317;49.048;8.468;2022-10-31T06:15:27;112049.66;;;-142.21;100.00
10539;BME280;5317;49.048;8.468;2022-10-31T06:18:03;112049.66;;;-142.21;100.00
10539;BME280;5317;49.048;8.468;2022-10-31T06:20:33;112049.66;;;-142.21;100.00
10539;BME280;5317;49.048;8.468;2022-10-31T06:23:01;112049.66;;;-142.21;100.00
10539;BME280;5317;49.048;8.468;2022-10-31T06:25:29;112049.66;;;-142.21;100.00
10539;BME280;5317;49.048;8.468;2022-10-31T06:27:56;112049.66;;;-142.21;100.00
10539;BME280;5317;49.048;8.468;2022-10-31T06:30:23;112049.66;;;-142.21;100.00
10539;BME280;5317;49.048;8.468;2022-10-31T06:32:51;112049.66;;;-142.21;100.00
10539;BME280;5317;49.048;8.468;2022-10-31T06:35:20;112049.66;;;-142.21;100.00
10539;BME280;5317;49.048;8.468;2022-10-31T06:37:53;112049.66;;;-142.21;100.00
10539;BME280;5317;49.048;8.468;2022-10-31T06:40:21;112049.66;;;-142.21;100.00
10539;BME280;5317;49.048;8.468;2022-10-31T06:42:57;112049.66;;;-142.21;100.00
10539;BME280;5317;49.048;8.468;2022-10-31T06:45:24;112049.66;;;-142.21;100.00
10539;BME280;5317;49.048;8.468;2022-10-31T06:47:52;112049.66;;;-142.21;100.00
10539;BME280;5317;49.048;8.468;2022-10-31T06:50:19;112049.66;;;-142.21;100.00
10539;BME280;5317;49.048;8.468;2022-10-31T06:52:53;112049.66;;;-142.21;100.00
10539;BME280;5317;49.048;8.468;2022-10-31T06:55:21;112049.66;;;-142.21;100.00
10539;BME280;5317;49.048;8.468;2022-10-31T06:57:50;112049.66;;;-142.21;100.00
10539;BME280;5317;49.048;8.468;2022-10-31T07:00:17;112049.66;;;-142.21;100.00
10539;BME280;5317;49.048;8.468;2022-10-31T07:02:55;112049.66;;;-142.21;100.00
10539;BME280;5317;49.048;8.468;2022-10-31T07:05:23;112049.66;;;-142.21;100.00
10539;BME280;5317;49.048;8.468;2022-10-31T07:07:54;112049.66;;;-142.21;100.00
10539;BME280;5317;49.048;8.468;2022-10-31T07:10:23;112049.66;;;-142.21;100.00
10539;BME280;5317;49.048;8.468;2022-10-31T07:12:54;112049.66;;;-142.21;100.00
10539;BME280;5317;49.048;8.468;2022-10-31T07:15:22;112049.66;;;-142.21;100.00
10539;BME280;5317;49.048;8.468;2022-10-31T07:17:49;112049.66;;;-142.21;100.00
10539;BME280;5317;49.048;8.468;2022-10-31T07:20:17;112049.66;;;-142.21;100.00
10539;BME280;5317;49.048;8.468;2022-10-31T07:22:44;112049.66;;;-142.21;100.00
10539;BME280;5317;49.048;8.468;2022-10-31T07:25:13;112049.66;;;-142.21;100.00
10539;BME280;5317;49.048;8.468;2022-10-31T07:27:42;112049.66;;;-142.21;100.00
10539;BME280;5317;49.048;8.468;2022-10-31T07:30:12;112049.66;;;-142.21;100.00
10539;BME280;5317;49.048;8.468;2022-10-31T07:32:45;112049.66;;;-142.21;100.00
10539;BME280;5317;49.048;8.468;2022-10-31T07:35:15;112049.66;;;-142.21;100.00
10539;BME280;5317;49.048;8.468;2022-10-31T07:37:42;112049.66;;;-142.21;100.00
10539;BME280;5317;49.048;8.468;2022-10-31T07:40:11;112049.66;;;-142.21;100.00
10539;BME280;5317;49.048;8.468;2022-10-31T07:42:42;112049.66;;;-142.21;100.00
10539;BME280;5317;49.048;8.468;2022-10-31T07:45:11;112049.66;;;-142.21;100.00
10539;BME280;5317;49.048;8.468;2022-10-31T07:47:39;112049.66;;;-142.21;100.00
10539;BME280;5317;49.048;8.468;2022-10-31T07:50:08;112049.66;;;-142.21;100.00
10539;BME280;5317;49.048;8.468;2022-10-31T07:52:36;112049.66;;;-142.21;100.00
10539;BME280;5317;49.048;8.468;2022-10-31T07:55:04;112049.66;;;-142.21;100.00
10539;BME280;5317;49.048;8.468;2022-10-31T07:57:32;112049.66;;;-142.21;100.00
10539;BME280;5317;49.048;8.468;2022-10-31T08:00:02;112049.66;;;-142.21;100.00
10539;BME280;5317;49.048;8.468;2022-10-31T08:02:29;112049.66;;;-142.21;100.00
10539;BME280;5317;49.048;8.468;2022-10-31T08:04:57;112049.66;;;-142.21;100.00
10539;BME280;5317;49.048;8.468;2022-10-31T08:07:25;112049.66;;;-142.21;100.00
10539;BME280;5317;49.048;8.468;2022-10-31T08:09:54;112049.66;;;-142.21;100.00
10539;BME280;5317;49.048;8.468;2022-10-31T08:12:21;112049.66;;;-142.21;100.00
10539;BME280;5317;49.048;8.468;2022-10-31T08:14:49;112049.66;;;-142.21;100.00
10539;BME280;5317;49.048;8.468;2022-10-31T08:17:18;112049.66;;;-142.21;100.00
10539;BME280;5317;49.048;8.468;2022-10-31T08:19:45;112049.66;;;-142.21;100.00
10539;BME280;5317;49.048;8.468;2022-10-31T08:22:12;112049.66;;;-142.21;100.00
10539;BME280;5317;49.048;8.468;2022-10-31T08:24:40;112049.66;;;-142.21;100.00
10539;BME280;5317;49.048;8.468;2022-10-31T08:27:07;112049.66;;;-142.21;100.00
10539;BME280;5317;49.048;8.468;2022-10-31T08:29:34;112049.66;;;-142.21;100.00
10539;BME280;5317;49.048;8.468;2022-10-31T08:32:01;112049.66;;;-142.21;100.00
10539;BME280;5317;49.048;8.468;2022-10-31T08:34:30;112049.66;;;-142.21;100.00
10539;BME280;5317;49.048;8.468;2022-10-31T08:36:58;112049.66;;;-142.21;100.00
10539;BME280;5317;49.048;8.468;2022-10-31T08:39:25;112049.66;;;-142.21;100.00
10539;BME280;5317;49.048;8.468;2022-10-31T08:41:52;112049.66;;;-142.21;100.00
10539;BME280;5317;49.048;8.468;2022-10-31T08:44:19;112049.66;;;-142.21;100.00
10539;BME280;5317;49.048;8.468;2022-10-31T08:46:47;112049.66;;;-142.21;100.00
10539;BME280;5317;49.048;8.468;2022-10-31T08:49:14;112049.66;;;-142.21;100.00
10539;BME280;5317;49.048;8.468;2022-10-31T08:51:42;112049.66;;;-142.21;100.00
10539;BME280;5317;49.048;8.468;2022-10-31T08:54:10;112049.66;;;-142.21;100.00
10539;BME280;5317;49.048;8.468;2022-10-31T08:56:37;112049.66;;;-142.21;100.00
10539;BME280;5317;49.048;8.468;2022-10-31T08:59:04;112049.66;;;-142.21;100.00
10539;BME280;5317;49.048;8.468;2022-10-31T09:01:33;112049.66;;;-142.21;100.00
10539;BME280;5317;49.048;8.468;2022-10-31T09:04:00;112049.66;;;-142.21;100.00
10539;BME280;5317;49.048;8.468;2022-10-31T09:06:27;112049.66;;;-142.21;100.00
10539;BME280;5317;49.048;8.468;2022-10-31T09:08:56;112049.66;;;-142.21;100.00
10539;BME280;5317;49.048;8.468;2022-10-31T09:11:23;112049.66;;;-142.21;100.00
10539;BME280;5317;49.048;8.468;2022-10-31T09:13:52;112049.66;;;-142.21;100.00
10539;BME280;5317;49.048;8.468;2022-10-31T09:16:20;112049.66;;;-142.21;100.00
10539;BME280;5317;49.048;8.468;2022-10-31T09:18:48;112049.66;;;-142.21;100.00
10539;BME280;5317;49.048;8.468;2022-10-31T09:21:16;112049.66;;;-142.21;100.00
10539;BME280;5317;49.048;8.468;2022-10-31T09:23:43;112049.66;;;-142.21;100.00
10539;BME280;5317;49.048;8.468;2022-10-31T09:26:11;112049.66;;;-142.21;100.00
10539;BME280;5317;49.048;8.468;2022-10-31T09:28:38;112049.66;;;-142.21;100.00
10539;BME280;5317;49.048;8.468;2022-10-31T09:31:07;112049.66;;;-142.21;100.00
10539;BME280;5317;49.048;8.468;2022-10-31T09:33:36;112049.66;;;-142.21;100.00
10539;BME280;5317;49.048;8.468;2022-10-31T09:36:04;112049.66;;;-142.21;99.52
10539;BME280;5317;49.048;8.468;2022-10-31T09:38:31;112049.66;;;-142.21;99.76
10539;BME280;5317;49.048;8.468;2022-10-31T09:41:14;112049.66;;;-142.21;99.72
10539;BME280;5317;49.048;8.468;2022-10-31T09:43:56;112049.66;;;-142.21;98.03
10539;BME280;5317;49.048;8.468;2022-10-31T09:46:34;112049.66;;;-142.21;96.83
10539;BME280;5317;49.048;8.468;2022-10-31T09:49:29;112049.66;;;-142.21;95.47
10539;BME280;5317;49.048;8.468;2022-10-31T09:52:05;112049.66;;;-142.21;96.06
10539;BME280;5317;49.048;8.468;2022-10-31T09:54:43;112049.66;;;-142.21;95.16
10539;BME280;5317;49.048;8.468;2022-10-31T09:57:19;112049.66;;;-142.21;95.34
10539;BME280;5317;49.048;8.468;2022-10-31T09:59:50;112049.66;;;-142.21;94.66
10539;BME280;5317;49.048;8.468;2022-10-31T10:02:23;112049.66;;;-142.21;95.37
10539;BME280;5317;49.048;8.468;2022-10-31T10:04:58;112049.66;;;-142.21;94.75
10539;BME280;5317;49.048;8.468;2022-10-31T10:07:38;112049.66;;;-142.21;92.13
10539;BME280;5317;49.048;8.468;2022-10-31T10:10:16;112049.66;;;-142.21;92.47
10539;BME280;5317;49.048;8.468;2022-10-31T10:13:13;112049.66;;;-142.21;92.18
10539;BME280;5317;49.048;8.468;2022-10-31T10:16:17;112049.66;;;-142.21;92.79
10539;BME280;5317;49.048;8.468;2022-10-31T10:19:06;112049.66;;;-142.21;92.61
10539;BME280;5317;49.048;8.468;2022-10-31T10:21:46;112049.66;;;-142.21;92.92
10539;BME280;5317;49.048;8.468;2022-10-31T10:24:33;112049.66;;;-142.21;91.72
10539;BME280;5317;49.048;8.468;2022-10-31T10:27:17;112049.66;;;-142.21;92.34
10539;BME280;5317;49.048;8.468;2022-10-31T10:29:58;112049.66;;;-142.21;92.38
10539;BME280;5317;49.048;8.468;2022-10-31T10:32:36;112049.66;;;-142.21;92.80
10539;BME280;5317;49.048;8.468;2022-10-31T10:35:19;112049.66;;;-142.21;92.52
10539;BME280;5317;49.048;8.468;2022-10-31T10:37:51;112049.66;;;-142.21;92.47
10539;BME280;5317;49.048;8.468;2022-10-31T10:40:23;112049.66;;;-142.21;91.91
10539;BME280;5317;49.048;8.468;2022-10-31T10:43:01;112049.66;;;-142.21;91.43
10539;BME280;5317;49.048;8.468;2022-10-31T10:46:08;112049.66;;;-142.21;90.85
10539;BME280;5317;49.048;8.468;2022-10-31T10:49:13;112049.66;;;-142.21;91.79
10539;BME280;5317;49.048;8.468;2022-10-31T10:51:46;112049.66;;;-142.21;92.17
10539;BME280;5317;49.048;8.468;2022-10-31T10:54:38;112049.66;;;-142.21;92.40
10539;BME280;5317;49.048;8.468;2022-10-31T10:57:20;112049.66;;;-142.21;91.82
10539;BME280;5317;49.048;8.468;2022-10-31T10:59:50;112049.66;;;-142.21;91.85
10539;BME280;5317;49.048;8.468;2022-10-31T11:02:22;112049.66;;;-142.21;92.26
10539;BME280;5317;49.048;8.468;2022-10-31T11:04:53;112049.66;;;-142.21;92.56
10539;BME280;5317;49.048;8.468;2022-10-31T11:07:22;112049.66;;;-142.21;91.36
10539;BME280;5317;49.048;8.468;2022-10-31T11:09:49;112049.66;;;-142.21;91.41
10539;BME280;5317;49.048;8.468;2022-10-31T11:12:22;112049.66;;;-142.21;92.73
10539;BME280;5317;49.048;8.468;2022-10-31T11:14:55;112049.66;;;-142.21;92.42
10539;BME280;5317;49.048;8.468;2022-10-31T11:17:31;112049.66;;;-142.21;92.52
10539;BME280;5317;49.048;8.468;2022-10-31T11:20:02;112049.66;;;-142.21;92.11
10539;BME280;5317;49.048;8.468;2022-10-31T11:22:30;112049.66;;;-142.21;91.43
10539;BME280;5317;49.048;8.468;2022-10-31T11:24:58;112049.66;;;-142.21;90.71
10539;BME280;5317;49.048;8.468;2022-10-31T11:27:26;112049.66;;;-142.21;91.13
10539;BME280;5317;49.048;8.468;2022-10-31T11:30:05;112049.66;;;-142.21;90.68
10539;BME280;5317;49.048;8.468;2022-10-31T11:32:34;112049.66;;;-142.21;91.12
10539;BME280;5317;49.048;8.468;2022-10-31T11:35:09;112049.66;;;-142.21;90.74
10539;BME280;5317;49.048;8.468;2022-10-31T11:37:43;112049.66;;;-142.21;90.97
10539;BME280;5317;49.048;8.468;2022-10-31T11:40:18;112049.66;;;-142.21;91.46
10539;BME280;5317;49.048;8.468;2022-10-31T11:42:47;112049.66;;;-142.21;91.55
10539;BME280;5317;49.048;8.468;2022-10-31T11:45:17;112049.66;;;-142.21;91.29
10539;BME280;5317;49.048;8.468;2022-10-31T11:47:56;112049.66;;;-142.21;91.65
10539;BME280;5317;49.048;8.468;2022-10-31T11:50:27;112049.66;;;-142.21;90.72
10539;BME280;5317;49.048;8.468;2022-10-31T11:52:55;112049.66;;;-142.21;90.50
10539;BME280;5317;49.048;8.468;2022-10-31T11:55:33;112049.66;;;-142.21;88.61
10539;BME280;5317;49.048;8.468;2022-10-31T11:58:01;112049.66;;;-142.21;88.95
10539;BME280;5317;49.048;8.468;2022-10-31T12:00:31;112049.66;;;-142.21;88.89
10539;BME280;5317;49.048;8.468;2022-10-31T12:03:24;112049.66;;;-142.21;89.20
10539;BME280;5317;49.048;8.468;2022-10-31T12:06:00;112049.66;;;-142.21;89.72
10539;BME280;5317;49.048;8.468;2022-10-31T12:08:31;112049.66;;;-142.21;90.45
10539;BME280;5317;49.048;8.468;2022-10-31T12:11:11;112049.66;;;-142.21;90.23
10539;BME280;5317;49.048;8.468;2022-10-31T12:14:02;112049.66;;;-142.21;89.34
10539;BME280;5317;49.048;8.468;2022-10-31T12:16:38;112049.66;;;-142.21;88.81
10539;BME280;5317;49.048;8.468;2022-10-31T12:19:16;112049.66;;;-142.21;89.51
10539;BME280;5317;49.048;8.468;2022-10-31T12:22:02;112049.66;;;-142.21;90.01
10539;BME280;5317;49.048;8.468;2022-10-31T12:24:59;112049.66;;;-142.21;89.47
10539;BME280;5317;49.048;8.468;2022-10-31T12:27:54;112049.66;;;-142.21;90.14
10539;BME280;5317;49.048;8.468;2022-10-31T12:30:35;112049.66;;;-142.21;90.25
10539;BME280;5317;49.048;8.468;2022-10-31T12:33:34;112049.66;;;-142.21;89.72
10539;BME280;5317;49.048;8.468;2022-10-31T12:36:37;112049.66;;;-142.21;90.22
10539;BME280;5317;49.048;8.468;2022-10-31T12:39:24;112049.66;;;-142.21;90.30
10539;BME280;5317;49.048;8.468;2022-10-31T12:42:01;112049.66;;;-142.21;89.94
10539;BME280;5317;49.048;8.468;2022-10-31T12:48:06;112049.66;;;-142.21;90.76
10539;BME280;5317;49.048;8.468;2022-10-31T12:50:54;112049.66;;;-142.21;91.24
10539;BME280;5317;49.048;8.468;2022-10-31T12:53:40;112049.66;;;-142.21;91.45
10539;BME280;5317;49.048;8.468;2022-10-31T12:56:30;112049.66;;;-142.21;92.49
10539;BME280;5317;49.048;8.468;2022-10-31T12:59:10;112049.66;;;-142.21;92.56
10539;BME280;5317;49.048;8.468;2022-10-31T13:01:46;112049.66;;;-142.21;92.52
10539;BME280;5317;49.048;8.468;2022-10-31T13:04:22;112049.66;;;-142.21;91.16